Time;durP1;ratioP1;P1;durP2;ratioP2;P2;SDS_P1;SDS_P2;PMS_P1;PMS_P2;Temp;Humidity;BMP_temperature;BMP_pressure;BME280_temperature;BME280_humidity;BME280_pressure;Samples;Min_cycle;Max_cycle;Signal;HPM_P1;HPM_P2
2023/03/27 00:00:59;;;;;;;13.13;8.88;;;;;;;;;;5015807;28;20032;-78
2023/03/27 00:03:26;;;;;;;21.15;11.70;;;;;;;;;;5016368;28;20538;-77
2023/03/27 00:06:00;;;;;;;12.63;7.50;;;;;;;;;;5017386;28;20056;-78
2023/03/27 00:08:26;;;;;;;11.27;6.70;;;;;;;;;;5003533;28;20030;-78
2023/03/27 00:10:53;;;;;;;14.27;7.35;;;;;;;;;;5009458;28;20042;-78
2023/03/27 00:13:20;;;;;;;11.10;7.13;;;;;;;;;;5007669;28;20023;-78
2023/03/27 00:15:46;;;;;;;17.50;8.48;;;;;;;;;;5015668;28;20049;-77
2023/03/27 00:18:12;;;;;;;14.15;7.82;;;;;;;;;;5011973;28;20034;-77
2023/03/27 00:20:39;;;;;;;13.75;7.68;;;;;;;;;;5017067;28;20018;-78
2023/03/27 00:23:05;;;;;;;14.68;6.93;;;;;;;;;;5019371;28;20035;-78
2023/03/27 00:25:32;;;;;;;11.82;7.07;;;;;;;;;;5013797;28;20495;-78
2023/03/27 00:27:59;;;;;;;11.30;6.30;;;;;;;;;;5014565;28;20061;-78
2023/03/27 00:30:27;;;;;;;11.20;6.32;;;;;;;;;;5019513;28;20106;-77
2023/03/27 00:32:54;;;;;;;8.07;5.57;;;;;;;;;;5014623;28;20041;-77
2023/03/27 00:35:21;;;;;;;12.57;7.75;;;;;;;;;;5022802;28;19998;-75
2023/03/27 00:37:47;;;;;;;11.45;6.40;;;;;;;;;;5015407;28;20068;-79
2023/03/27 00:40:17;;;;;;;11.77;6.28;;;;;;;;;;5021283;28;20028;-77
2023/03/27 00:42:44;;;;;;;14.85;7.93;;;;;;;;;;5014445;28;20038;-77
2023/03/27 00:45:21;;;;;;;14.32;7.05;;;;;;;;;;4998537;28;20018;-78
2023/03/27 00:47:48;;;;;;;12.25;8.35;;;;;;;;;;5018037;28;20036;-78
2023/03/27 00:50:18;;;;;;;20.85;9.38;;;;;;;;;;5011804;28;20091;-78
2023/03/27 00:52:46;;;;;;;17.30;7.60;;;;;;;;;;5016749;28;20068;-78
2023/03/27 00:55:14;;;;;;;17.10;8.38;;;;;;;;;;5007059;28;20026;-77
2023/03/27 00:57:42;;;;;;;16.30;8.02;;;;;;;;;;5014735;28;20129;-77
2023/03/27 01:00:12;;;;;;;13.32;7.53;;;;;;;;;;5023665;28;20013;-77
2023/03/27 01:02:40;;;;;;;12.82;7.63;;;;;;;;;;5012991;28;21388;-78
2023/03/27 01:05:08;;;;;;;19.25;7.90;;;;;;;;;;5014503;28;20030;-77
2023/03/27 01:07:34;;;;;;;12.70;7.28;;;;;;;;;;5012211;28;20026;-78
2023/03/27 01:10:00;;;;;;;11.90;7.28;;;;;;;;;;5018764;28;20037;-79
2023/03/27 01:12:34;;;;;;;15.73;7.35;;;;;;;;;;5020550;28;20029;-77
2023/03/27 01:15:00;;;;;;;16.10;7.47;;;;;;;;;;5027822;28;20026;-78
2023/03/27 01:17:49;;;;;;;14.48;7.75;;;;;;;;;;5023901;28;20101;-78
2023/03/27 01:20:29;;;;;;;12.38;7.35;;;;;;;;;;5020252;28;20025;-76
2023/03/27 01:23:17;;;;;;;12.65;7.38;;;;;;;;;;5019105;28;20018;-78
2023/03/27 01:26:15;;;;;;;10.35;7.03;;;;;;;;;;5021950;28;20030;-79
2023/03/27 01:28:42;;;;;;;11.80;7.13;;;;;;;;;;5007502;28;20046;-78
2023/03/27 01:31:27;;;;;;;16.38;7.43;;;;;;;;;;5024071;28;20022;-77
2023/03/27 01:34:08;;;;;;;10.63;7.40;;;;;;;;;;5017160;28;20069;-78
2023/03/27 01:36:54;;;;;;;11.70;7.00;;;;;;;;;;5017092;28;20034;-77
2023/03/27 01:39:21;;;;;;;12.82;7.63;;;;;;;;;;5013121;28;20096;-78
2023/03/27 01:42:01;;;;;;;11.85;7.38;;;;;;;;;;5017749;28;20033;-78
2023/03/27 01:44:35;;;;;;;12.85;6.75;;;;;;;;;;5038086;28;20539;-78
2023/03/27 01:47:13;;;;;;;10.07;6.78;;;;;;;;;;5013799;28;20487;-78
2023/03/27 01:49:42;;;;;;;16.52;7.30;;;;;;;;;;5011889;28;20189;-78
2023/03/27 01:52:12;;;;;;;14.35;7.40;;;;;;;;;;5016461;28;20091;-77
2023/03/27 01:54:40;;;;;;;12.00;7.15;;;;;;;;;;5019515;28;20026;-77
2023/03/27 01:57:14;;;;;;;11.75;6.90;;;;;;;;;;5014625;28;20081;-77
2023/03/27 01:59:43;;;;;;;12.27;6.68;;;;;;;;;;5016520;28;20023;-76
2023/03/27 02:02:12;;;;;;;11.32;6.63;;;;;;;;;;5019709;28;20034;-77
2023/03/27 02:04:49;;;;;;;12.18;7.00;;;;;;;;;;5018167;28;20880;-78
2023/03/27 02:07:17;;;;;;;9.93;6.30;;;;;;;;;;5016648;28;20115;-77
2023/03/27 02:09:48;;;;;;;13.75;6.60;;;;;;;;;;5020325;28;20034;-78
2023/03/27 02:12:19;;;;;;;11.40;6.93;;;;;;;;;;5020358;28;20022;-79
2023/03/27 02:14:50;;;;;;;11.75;6.53;;;;;;;;;;5017103;28;20022;-76
2023/03/27 02:17:18;;;;;;;12.98;6.63;;;;;;;;;;5010083;28;20023;-76
2023/03/27 02:19:48;;;;;;;8.90;6.38;;;;;;;;;;5021411;28;20109;-77
2023/03/27 02:22:14;;;;;;;15.45;7.40;;;;;;;;;;5018838;28;20048;-77
2023/03/27 02:24:42;;;;;;;16.90;7.72;;;;;;;;;;5020107;28;20499;-77
2023/03/27 02:27:23;;;;;;;11.57;7.20;;;;;;;;;;5014154;28;20056;-79
2023/03/27 02:30:19;;;;;;;11.40;6.97;;;;;;;;;;5017113;28;20134;-77
2023/03/27 02:32:48;;;;;;;8.82;6.32;;;;;;;;;;5007197;28;20050;-77
2023/03/27 02:35:22;;;;;;;10.30;6.45;;;;;;;;;;5014714;28;20029;-76
2023/03/27 02:38:03;;;;;;;11.23;6.17;;;;;;;;;;5014519;28;20022;-77
2023/03/27 02:40:45;;;;;;;11.88;6.47;;;;;;;;;;5013745;28;20037;-76
2023/03/27 02:43:30;;;;;;;11.98;7.05;;;;;;;;;;5017438;28;20120;-77
2023/03/27 02:46:05;;;;;;;11.73;6.45;;;;;;;;;;5021210;28;20029;-77
2023/03/27 02:48:41;;;;;;;12.60;6.22;;;;;;;;;;5013670;28;20082;-79
2023/03/27 02:51:17;;;;;;;11.30;6.22;;;;;;;;;;5021180;28;20029;-77
2023/03/27 02:54:03;;;;;;;12.48;6.93;;;;;;;;;;5020037;28;20030;-76
2023/03/27 02:56:31;;;;;;;15.15;6.72;;;;;;;;;;5018690;28;20033;-76
2023/03/27 02:59:03;;;;;;;12.40;6.20;;;;;;;;;;5019262;28;20027;-77
2023/03/27 03:01:31;;;;;;;11.40;7.10;;;;;;;;;;5020493;28;20034;-77
2023/03/27 03:03:57;;;;;;;11.13;6.95;;;;;;;;;;5015954;28;20049;-77
2023/03/27 03:06:29;;;;;;;10.05;6.22;;;;;;;;;;5013056;28;20369;-78
2023/03/27 03:09:06;;;;;;;10.70;6.85;;;;;;;;;;5023611;28;20033;-79
2023/03/27 03:11:35;;;;;;;9.40;6.75;;;;;;;;;;5020718;28;20040;-76
2023/03/27 03:14:01;;;;;;;10.55;7.35;;;;;;;;;;5020828;28;20037;-77
2023/03/27 03:16:29;;;;;;;12.05;6.53;;;;;;;;;;5019859;28;20093;-77
2023/03/27 03:18:55;;;;;;;10.10;6.55;;;;;;;;;;5021091;28;20049;-77
2023/03/27 03:21:22;;;;;;;12.45;7.05;;;;;;;;;;5012687;28;20023;-77
2023/03/27 03:23:48;;;;;;;13.00;7.15;;;;;;;;;;5010891;28;20392;-77
2023/03/27 03:26:15;;;;;;;12.27;6.88;;;;;;;;;;5018532;28;20025;-77
2023/03/27 03:28:42;;;;;;;10.95;6.30;;;;;;;;;;5017116;28;20022;-77
2023/03/27 03:31:11;;;;;;;13.90;6.78;;;;;;;;;;5017434;28;20414;-78
2023/03/27 03:33:37;;;;;;;12.30;6.47;;;;;;;;;;5017081;28;20032;-77
2023/03/27 03:36:04;;;;;;;11.88;6.45;;;;;;;;;;5011756;28;20026;-77
2023/03/27 03:38:33;;;;;;;8.57;6.03;;;;;;;;;;5018460;28;20014;-77
2023/03/27 03:41:00;;;;;;;11.30;6.80;;;;;;;;;;5017026;28;20047;-77
2023/03/27 03:43:27;;;;;;;8.88;6.00;;;;;;;;;;5019393;28;20030;-78
2023/03/27 03:45:53;;;;;;;9.70;6.90;;;;;;;;;;5015067;28;20157;-77
2023/03/27 03:48:20;;;;;;;9.95;6.13;;;;;;;;;;5014467;28;20046;-78
2023/03/27 03:50:47;;;;;;;14.23;5.88;;;;;;;;;;5014953;28;20030;-78
2023/03/27 03:53:17;;;;;;;8.50;5.18;;;;;;;;;;5014992;28;20089;-77
2023/03/27 03:55:44;;;;;;;8.30;5.90;;;;;;;;;;5011893;28;20030;-77
2023/03/27 03:58:11;;;;;;;9.18;6.07;;;;;;;;;;5017125;28;20101;-76
2023/03/27 04:00:38;;;;;;;10.38;7.35;;;;;;;;;;5017882;28;20126;-77
2023/03/27 04:03:08;;;;;;;10.93;7.13;;;;;;;;;;5011402;28;20034;-76
2023/03/27 04:05:37;;;;;;;12.57;6.88;;;;;;;;;;5010012;28;20033;-78
2023/03/27 04:08:08;;;;;;;11.07;6.22;;;;;;;;;;5015590;28;20026;-78
2023/03/27 04:10:35;;;;;;;13.18;7.20;;;;;;;;;;5014062;28;20116;-78
2023/03/27 04:13:01;;;;;;;8.40;7.40;;;;;;;;;;5012889;28;20039;-77
2023/03/27 04:15:28;;;;;;;13.32;6.75;;;;;;;;;;5014947;28;20490;-77
2023/03/27 04:17:56;;;;;;;14.88;8.13;;;;;;;;;;5024627;28;20041;-77
2023/03/27 04:20:25;;;;;;;17.38;8.57;;;;;;;;;;5019373;28;20026;-77
2023/03/27 04:22:53;;;;;;;16.73;7.75;;;;;;;;;;5011691;28;20022;-76
2023/03/27 04:25:21;;;;;;;10.63;6.00;;;;;;;;;;5014064;28;20027;-78
2023/03/27 04:27:50;;;;;;;11.70;6.30;;;;;;;;;;5008882;28;20025;-77
2023/03/27 04:30:21;;;;;;;11.05;6.45;;;;;;;;;;5022180;28;20041;-78
2023/03/27 04:32:48;;;;;;;9.35;5.50;;;;;;;;;;5017034;28;20025;-77
2023/03/27 04:35:14;;;;;;;9.65;6.25;;;;;;;;;;5012822;28;20025;-77
2023/03/27 04:37:41;;;;;;;11.80;5.95;;;;;;;;;;5006099;28;20036;-78
2023/03/27 04:40:09;;;;;;;8.98;6.10;;;;;;;;;;5018956;28;20377;-78
2023/03/27 04:42:41;;;;;;;12.10;5.95;;;;;;;;;;5012959;28;20026;-78
2023/03/27 04:45:09;;;;;;;11.27;6.75;;;;;;;;;;5020637;28;20155;-78
2023/03/27 04:47:39;;;;;;;10.65;6.28;;;;;;;;;;5023850;28;20026;-78
2023/03/27 04:50:06;;;;;;;10.85;6.30;;;;;;;;;;5020551;28;20260;-77
2023/03/27 04:52:32;;;;;;;7.38;5.90;;;;;;;;;;5008546;28;20026;-80
2023/03/27 04:55:00;;;;;;;11.32;6.57;;;;;;;;;;5022731;28;20392;-78
2023/03/27 04:57:29;;;;;;;11.63;5.68;;;;;;;;;;5016468;28;20029;-78
2023/03/27 04:59:56;;;;;;;10.75;5.97;;;;;;;;;;5017633;28;20034;-77
2023/03/27 05:02:22;;;;;;;9.65;6.43;;;;;;;;;;5013709;28;20129;-77
2023/03/27 05:04:48;;;;;;;9.27;6.53;;;;;;;;;;5020249;28;20026;-77
2023/03/27 05:07:14;;;;;;;10.25;6.03;;;;;;;;;;5009417;28;20281;-77
2023/03/27 05:09:40;;;;;;;12.13;6.18;;;;;;;;;;5009417;28;20030;-77
2023/03/27 05:12:06;;;;;;;14.30;5.70;;;;;;;;;;5007807;28;20014;-77
2023/03/27 05:14:32;;;;;;;10.40;6.68;;;;;;;;;;5018537;28;20057;-78
2023/03/27 05:16:59;;;;;;;9.43;5.90;;;;;;;;;;5017562;28;20018;-78
2023/03/27 05:19:25;;;;;;;12.65;6.95;;;;;;;;;;5014618;28;20034;-77
2023/03/27 05:21:52;;;;;;;8.55;5.15;;;;;;;;;;5018696;28;20045;-79
2023/03/27 05:24:18;;;;;;;6.53;4.68;;;;;;;;;;5014882;28;20038;-77
2023/03/27 05:26:44;;;;;;;8.45;4.97;;;;;;;;;;5015388;28;20488;-77
2023/03/27 05:29:10;;;;;;;6.45;4.28;;;;;;;;;;5019238;28;20022;-77
2023/03/27 05:31:37;;;;;;;9.38;4.68;;;;;;;;;;5031641;28;20033;-77
2023/03/27 05:34:04;;;;;;;19.05;7.35;;;;;;;;;;5018178;28;20109;-77
2023/03/27 05:36:30;;;;;;;11.85;5.55;;;;;;;;;;5013622;28;20025;-78
2023/03/27 05:38:57;;;;;;;13.05;5.65;;;;;;;;;;5026981;28;20090;-77
2023/03/27 05:41:24;;;;;;;9.38;4.97;;;;;;;;;;5016877;28;20029;-76
2023/03/27 05:43:50;;;;;;;8.07;4.32;;;;;;;;;;5009451;28;20026;-75
2023/03/27 05:46:17;;;;;;;7.78;4.53;;;;;;;;;;5011698;28;20098;-76
2023/03/27 05:48:43;;;;;;;6.15;4.47;;;;;;;;;;5010502;28;20125;-75
2023/03/27 05:51:09;;;;;;;9.60;4.38;;;;;;;;;;5016168;28;20053;-76
2023/03/27 05:53:38;;;;;;;9.75;4.63;;;;;;;;;;5006442;28;20022;-76
2023/03/27 05:56:07;;;;;;;6.25;4.20;;;;;;;;;;5013362;28;20608;-76
2023/03/27 05:58:34;;;;;;;6.38;4.32;;;;;;;;;;5024673;28;20038;-76
2023/03/27 06:01:01;;;;;;;8.65;4.47;;;;;;;;;;5002465;28;20034;-76
2023/03/27 06:03:33;;;;;;;9.65;4.25;;;;;;;;;;5013544;28;20022;-76
2023/03/27 06:05:59;;;;;;;5.93;4.07;;;;;;;;;;5004369;28;20040;-76
2023/03/27 06:08:27;;;;;;;7.60;4.60;;;;;;;;;;5015550;28;20022;-75
2023/03/27 06:10:53;;;;;;;8.73;4.15;;;;;;;;;;5017553;28;20380;-75
2023/03/27 06:13:20;;;;;;;9.00;3.92;;;;;;;;;;5012945;28;20570;-77
2023/03/27 06:15:46;;;;;;;10.45;4.68;;;;;;;;;;5016974;28;20026;-77
2023/03/27 06:18:12;;;;;;;6.18;4.45;;;;;;;;;;5013766;28;20524;-77
2023/03/27 06:20:38;;;;;;;6.68;4.70;;;;;;;;;;5009261;28;20076;-77
2023/03/27 06:23:07;;;;;;;9.25;6.35;;;;;;;;;;5012204;28;20026;-75
2023/03/27 06:25:34;;;;;;;14.70;6.32;;;;;;;;;;5013258;28;20025;-76
2023/03/27 06:28:01;;;;;;;7.45;5.07;;;;;;;;;;5006624;28;20026;-77
2023/03/27 06:30:29;;;;;;;6.35;4.10;;;;;;;;;;5015276;28;20065;-77
2023/03/27 06:32:56;;;;;;;13.77;5.75;;;;;;;;;;5006872;28;20118;-78
2023/03/27 06:35:22;;;;;;;10.68;5.35;;;;;;;;;;5014184;28;20018;-77
2023/03/27 06:37:51;;;;;;;8.23;5.60;;;;;;;;;;5007350;28;20551;-77
2023/03/27 06:40:22;;;;;;;7.03;5.45;;;;;;;;;;5007648;28;20044;-76
2023/03/27 06:42:58;;;;;;;8.15;5.60;;;;;;;;;;5014304;28;20042;-77
2023/03/27 06:45:26;;;;;;;11.07;5.97;;;;;;;;;;5010879;28;20526;-77
2023/03/27 06:48:11;;;;;;;13.27;5.38;;;;;;;;;;5005462;28;20472;-79
2023/03/27 06:50:38;;;;;;;8.55;5.53;;;;;;;;;;5007637;28;20073;-77
2023/03/27 06:53:04;;;;;;;9.25;5.57;;;;;;;;;;5010067;28;20053;-78
2023/03/27 06:55:31;;;;;;;8.38;5.28;;;;;;;;;;5013511;28;20053;-78
2023/03/27 06:57:58;;;;;;;6.78;4.75;;;;;;;;;;5010752;28;20050;-78
2023/03/27 07:00:27;;;;;;;7.63;4.95;;;;;;;;;;5017091;28;20053;-78
2023/03/27 07:03:04;;;;;;;9.50;5.50;;;;;;;;;;5004460;28;20148;-78
2023/03/27 07:05:32;;;;;;;9.15;4.78;;;;;;;;;;5008222;28;20041;-77
2023/03/27 07:07:59;;;;;;;8.05;5.70;;;;;;;;;;5010129;28;20032;-78
2023/03/27 07:10:25;;;;;;;8.13;5.30;;;;;;;;;;5015981;28;20038;-77
2023/03/27 07:12:55;;;;;;;10.60;6.28;;;;;;;;;;5008750;28;20042;-75
2023/03/27 07:15:22;;;;;;;10.40;5.32;;;;;;;;;;5012362;28;20388;-78
2023/03/27 07:17:59;;;;;;;10.93;5.65;;;;;;;;;;5017180;28;20022;-77
2023/03/27 07:20:26;;;;;;;8.95;5.45;;;;;;;;;;5011381;28;20034;-77
2023/03/27 07:22:55;;;;;;;12.93;5.65;;;;;;;;;;5009601;28;20094;-78
2023/03/27 07:25:21;;;;;;;9.23;5.43;;;;;;;;;;5015417;28;20029;-78
2023/03/27 07:27:47;;;;;;;7.32;4.68;;;;;;;;;;5018634;28;20511;-78
2023/03/27 07:30:14;;;;;;;12.60;5.35;;;;;;;;;;5019094;28;20026;-77
2023/03/27 07:32:44;;;;;;;9.32;4.85;;;;;;;;;;5017025;28;20085;-78
2023/03/27 07:35:10;;;;;;;7.85;4.80;;;;;;;;;;5020878;28;20080;-78
2023/03/27 07:37:37;;;;;;;11.98;4.93;;;;;;;;;;5011159;28;20025;-78
2023/03/27 07:40:07;;;;;;;10.02;5.22;;;;;;;;;;5012763;28;20042;-78
2023/03/27 07:42:33;;;;;;;8.10;4.90;;;;;;;;;;5011224;28;20034;-78
2023/03/27 07:45:00;;;;;;;8.38;5.07;;;;;;;;;;5015102;28;20030;-78
2023/03/27 07:47:27;;;;;;;9.57;4.40;;;;;;;;;;5010896;28;20033;-77
2023/03/27 07:49:53;;;;;;;5.63;4.65;;;;;;;;;;5008495;28;20046;-76
2023/03/27 07:52:19;;;;;;;14.07;5.28;;;;;;;;;;5013731;28;20049;-77
2023/03/27 07:54:47;;;;;;;9.05;4.47;;;;;;;;;;5015781;28;20054;-76
2023/03/27 07:57:14;;;;;;;7.97;4.53;;;;;;;;;;5015329;28;20516;-77
2023/03/27 07:59:40;;;;;;;7.47;3.88;;;;;;;;;;5016321;28;20511;-79
2023/03/27 08:02:07;;;;;;;7.82;4.78;;;;;;;;;;5008085;28;20347;-77
2023/03/27 08:04:33;;;;;;;7.32;3.90;;;;;;;;;;5011837;28;20038;-78
2023/03/27 08:06:59;;;;;;;8.00;4.57;;;;;;;;;;5017125;28;20034;-78
2023/03/27 08:09:26;;;;;;;7.70;3.83;;;;;;;;;;5010685;28;20041;-76
2023/03/27 08:11:52;;;;;;;5.55;4.05;;;;;;;;;;5012848;28;20487;-76
2023/03/27 08:14:18;;;;;;;9.52;3.88;;;;;;;;;;5017553;28;20045;-77
2023/03/27 08:16:44;;;;;;;7.38;4.03;;;;;;;;;;5004920;28;20033;-77
2023/03/27 08:19:11;;;;;;;8.82;3.88;;;;;;;;;;5015619;28;20034;-76
2023/03/27 08:21:37;;;;;;;5.38;3.58;;;;;;;;;;5012554;28;20033;-78
2023/03/27 08:24:04;;;;;;;6.63;3.85;;;;;;;;;;5014461;28;20022;-76
2023/03/27 08:26:31;;;;;;;7.22;4.10;;;;;;;;;;5014186;28;20030;-76
2023/03/27 08:28:57;;;;;;;6.45;3.90;;;;;;;;;;5018748;28;20017;-79
2023/03/27 08:31:24;;;;;;;4.75;3.67;;;;;;;;;;5018627;28;20030;-77
2023/03/27 08:33:50;;;;;;;6.38;4.20;;;;;;;;;;5029143;28;20060;-78
2023/03/27 08:36:18;;;;;;;8.10;3.85;;;;;;;;;;5010256;28;20029;-77
2023/03/27 08:38:45;;;;;;;5.03;3.70;;;;;;;;;;5013891;28;20085;-76
2023/03/27 08:41:41;;;;;;;8.35;3.90;;;;;;;;;;5017208;28;20041;-77
2023/03/27 08:44:12;;;;;;;6.97;3.35;;;;;;;;;;4946617;28;20043;-77
2023/03/27 08:46:47;;;;;;;7.45;3.92;;;;;;;;;;5012831;28;20069;-77
2023/03/27 08:49:16;;;;;;;10.25;3.88;;;;;;;;;;5012743;28;20419;-78
2023/03/27 08:51:46;;;;;;;6.88;3.80;;;;;;;;;;5012109;28;20034;-78
2023/03/27 08:54:44;;;;;;;8.25;3.90;;;;;;;;;;5012379;28;20018;-79
2023/03/27 08:57:18;;;;;;;7.43;3.97;;;;;;;;;;4990700;28;20070;-77
2023/03/27 08:59:45;;;;;;;7.80;3.50;;;;;;;;;;5026600;28;20030;-77
2023/03/27 09:02:20;;;;;;;8.65;4.55;;;;;;;;;;5011615;28;20029;-77
2023/03/27 09:05:06;;;;;;;9.57;4.88;;;;;;;;;;5001051;28;20076;-77
2023/03/27 09:07:38;;;;;;;8.90;3.88;;;;;;;;;;5008949;28;20033;-77
2023/03/27 09:10:20;;;;;;;10.55;3.55;;;;;;;;;;5007388;28;20025;-78
2023/03/27 09:12:47;;;;;;;7.88;3.58;;;;;;;;;;5018402;28;20022;-77
2023/03/27 09:15:19;;;;;;;8.32;3.40;;;;;;;;;;5012679;28;20076;-79
2023/03/27 09:17:48;;;;;;;6.15;3.13;;;;;;;;;;5006775;28;20026;-79
2023/03/27 09:20:17;;;;;;;7.07;2.95;;;;;;;;;;5003700;28;20428;-77
2023/03/27 09:22:46;;;;;;;5.43;2.95;;;;;;;;;;5011318;28;20025;-78
2023/03/27 09:25:22;;;;;;;9.73;2.80;;;;;;;;;;5005749;28;20090;-78
2023/03/27 09:27:48;;;;;;;;;;;;;;;;;;5006006;28;20045;-78
2023/03/27 09:30:17;;;;;;;8.88;2.67;;;;;;;;;;5023811;28;19925;-77
2023/03/27 09:32:44;;;;;;;6.20;2.90;;;;;;;;;;5013546;28;20048;-78
2023/03/27 09:35:19;;;;;;;8.82;2.60;;;;;;;;;;5017844;28;20034;-77
2023/03/27 09:37:46;;;;;;;7.75;4.28;;;;;;;;;;5015841;28;20112;-78
2023/03/27 09:40:32;;;;;;;11.25;4.75;;;;;;;;;;5014981;28;20034;-77
2023/03/27 09:43:03;;;;;;;6.15;2.72;;;;;;;;;;5016703;28;20041;-78
2023/03/27 09:45:29;;;;;;;4.95;3.28;;;;;;;;;;5015349;28;20032;-78
2023/03/27 09:48:02;;;;;;;6.70;2.45;;;;;;;;;;5011365;28;20117;-76
2023/03/27 09:50:40;;;;;;;4.38;2.80;;;;;;;;;;5010642;28;20048;-78
2023/03/27 09:53:11;;;;;;;5.07;3.55;;;;;;;;;;5015563;28;20065;-79
2023/03/27 09:55:45;;;;;;;14.15;3.58;;;;;;;;;;5023874;28;20033;-79
2023/03/27 09:58:19;;;;;;;5.75;3.22;;;;;;;;;;5015715;28;20065;-78
2023/03/27 10:00:45;;;;;;;3.90;2.85;;;;;;;;;;5016386;28;20085;-78
2023/03/27 10:03:16;;;;;;;6.70;3.10;;;;;;;;;;5014023;28;20022;-78
2023/03/27 10:05:43;;;;;;;5.85;3.25;;;;;;;;;;5012870;28;20098;-77
2023/03/27 10:08:27;;;;;;;4.32;3.22;;;;;;;;;;5021450;28;20022;-78
2023/03/27 10:10:58;;;;;;;7.55;2.80;;;;;;;;;;5020055;28;20047;-79
2023/03/27 10:13:26;;;;;;;7.10;3.17;;;;;;;;;;5028788;28;20033;-80
2023/03/27 10:15:58;;;;;;;7.35;2.83;;;;;;;;;;5017025;28;20093;-80
2023/03/27 10:18:28;;;;;;;7.07;2.80;;;;;;;;;;5017097;28;20030;-79
2023/03/27 10:20:56;;;;;;;8.02;3.28;;;;;;;;;;5020982;28;20022;-79
2023/03/27 10:23:29;;;;;;;5.28;2.83;;;;;;;;;;5015433;28;20025;-79
2023/03/27 10:26:03;;;;;;;5.95;2.63;;;;;;;;;;5020561;28;20025;-80
2023/03/27 10:28:37;;;;;;;6.38;2.70;;;;;;;;;;5012721;28;20480;-78
2023/03/27 10:31:09;;;;;;;4.23;2.57;;;;;;;;;;5016725;28;20030;-79
2023/03/27 10:33:40;;;;;;;4.50;2.60;;;;;;;;;;5020954;28;20057;-79
2023/03/27 10:36:07;;;;;;;15.32;3.58;;;;;;;;;;5021034;28;20033;-78
2023/03/27 10:38:35;;;;;;;7.00;2.40;;;;;;;;;;5018394;28;20053;-79
2023/03/27 10:41:03;;;;;;;5.57;2.50;;;;;;;;;;5019090;28;20388;-80
2023/03/27 10:43:31;;;;;;;6.22;2.83;;;;;;;;;;5015462;28;20041;-79
2023/03/27 10:45:59;;;;;;;4.32;2.50;;;;;;;;;;5012671;28;20060;-79
2023/03/27 10:48:46;;;;;;;4.15;2.10;;;;;;;;;;5016789;28;20050;-78
2023/03/27 10:51:24;;;;;;;8.25;2.65;;;;;;;;;;5015738;28;20084;-80
2023/03/27 10:53:54;;;;;;;2.65;2.10;;;;;;;;;;5019010;28;20014;-79
2023/03/27 10:56:34;;;;;;;5.15;2.40;;;;;;;;;;5014252;28;20018;-79
2023/03/27 10:59:03;;;;;;;5.82;2.65;;;;;;;;;;5013466;28;20041;-79
2023/03/27 11:01:39;;;;;;;6.30;2.40;;;;;;;;;;5004264;28;20014;-79
2023/03/27 11:04:14;;;;;;;7.28;2.45;;;;;;;;;;5013696;28;20383;-79
2023/03/27 11:06:42;;;;;;;5.05;2.60;;;;;;;;;;5002900;28;20367;-80
2023/03/27 11:09:26;;;;;;;5.10;2.45;;;;;;;;;;5003523;28;20022;-79
2023/03/27 11:11:52;;;;;;;5.00;2.30;;;;;;;;;;5004388;28;20033;-79
2023/03/27 11:14:27;;;;;;;6.63;2.55;;;;;;;;;;5007781;28;20033;-78
2023/03/27 11:16:56;;;;;;;13.98;2.50;;;;;;;;;;5018334;28;20092;-79
2023/03/27 11:19:35;;;;;;;4.93;2.58;;;;;;;;;;5021006;28;20096;-79
2023/03/27 11:22:13;;;;;;;6.13;2.70;;;;;;;;;;5015951;28;20388;-79
2023/03/27 11:24:52;;;;;;;5.53;2.95;;;;;;;;;;5005967;28;20026;-79
2023/03/27 11:27:37;;;;;;;5.88;2.22;;;;;;;;;;5012167;28;20031;-79
2023/03/27 11:30:25;;;;;;;5.47;2.83;;;;;;;;;;5013340;28;20107;-80
2023/03/27 11:33:10;;;;;;;2.30;1.98;;;;;;;;;;5008610;28;20150;-78
2023/03/27 11:35:38;;;;;;;3.58;2.78;;;;;;;;;;5021918;28;20106;-79
2023/03/27 11:38:17;;;;;;;5.43;3.17;;;;;;;;;;5018055;28;20022;-80
2023/03/27 11:40:48;;;;;;;3.92;2.47;;;;;;;;;;5009658;28;20057;-79
2023/03/27 11:43:15;;;;;;;11.15;3.45;;;;;;;;;;5021304;28;20661;-78
2023/03/27 11:46:01;;;;;;;5.05;2.10;;;;;;;;;;5016710;28;20025;-79
2023/03/27 11:48:45;;;;;;;5.20;3.28;;;;;;;;;;5010594;28;20531;-80
2023/03/27 11:51:35;;;;;;;6.82;2.95;;;;;;;;;;5019896;28;20080;-79
2023/03/27 11:54:07;;;;;;;6.07;2.90;;;;;;;;;;5008312;28;20041;-80
2023/03/27 11:56:53;;;;;;;5.43;2.63;;;;;;;;;;5022255;28;20037;-79
2023/03/27 11:59:32;;;;;;;5.80;2.58;;;;;;;;;;5018473;28;20034;-80
2023/03/27 12:02:13;;;;;;;6.45;2.25;;;;;;;;;;5017772;28;20026;-79
2023/03/27 12:04:43;;;;;;;5.43;2.22;;;;;;;;;;5008988;28;20057;-79
2023/03/27 12:07:09;;;;;;;3.92;2.28;;;;;;;;;;5008918;28;20029;-80
2023/03/27 12:09:35;;;;;;;5.95;3.10;;;;;;;;;;5016344;28;20381;-80
2023/03/27 12:12:10;;;;;;;6.60;2.10;;;;;;;;;;5008064;28;20037;-79
2023/03/27 12:14:36;;;;;;;;;;;;;;;;;;5019327;28;20019;-79
2023/03/27 12:17:06;;;;;;;7.93;2.92;;;;;;;;;;5018410;28;19922;-80
2023/03/27 12:19:35;;;;;;;3.33;2.42;;;;;;;;;;5013375;28;20086;-79
2023/03/27 12:22:24;;;;;;;5.85;2.95;;;;;;;;;;5014265;28;20540;-80
2023/03/27 12:25:09;;;;;;;8.55;2.30;;;;;;;;;;5005292;28;20499;-78
2023/03/27 12:27:47;;;;;;;6.83;2.63;;;;;;;;;;5013232;28;20499;-80
2023/03/27 12:30:19;;;;;;;7.78;3.47;;;;;;;;;;5008372;28;20163;-80
2023/03/27 12:33:05;;;;;;;3.17;2.20;;;;;;;;;;5009428;28;20026;-79
2023/03/27 12:35:51;;;;;;;4.40;2.58;;;;;;;;;;5015751;28;20002;-79
2023/03/27 12:38:17;;;;;;;5.25;2.58;;;;;;;;;;5021998;28;20026;-79
2023/03/27 12:41:01;;;;;;;4.93;2.30;;;;;;;;;;5020328;28;20637;-80
2023/03/27 12:43:30;;;;;;;6.45;2.72;;;;;;;;;;5008464;28;20587;-79
2023/03/27 12:46:10;;;;;;;3.65;2.17;;;;;;;;;;5020621;28;20112;-81
2023/03/27 12:48:55;;;;;;;5.57;2.58;;;;;;;;;;5008880;28;20046;-79
2023/03/27 12:51:40;;;;;;;3.90;2.63;;;;;;;;;;5000452;28;20100;-80
2023/03/27 12:54:14;;;;;;;4.47;2.30;;;;;;;;;;5004753;28;20135;-79
2023/03/27 12:56:41;;;;;;;4.22;2.50;;;;;;;;;;5004560;28;20057;-79
2023/03/27 12:59:14;;;;;;;5.57;2.45;;;;;;;;;;5014669;28;20531;-80
2023/03/27 13:01:50;;;;;;;2.60;2.40;;;;;;;;;;5010373;28;20435;-79
2023/03/27 13:04:40;;;;;;;3.08;2.75;;;;;;;;;;5015505;28;20507;-79
2023/03/27 13:07:45;;;;;;;5.85;2.65;;;;;;;;;;5015266;28;20049;-78
2023/03/27 13:10:34;;;;;;;7.72;2.50;;;;;;;;;;4987183;28;20059;-79
2023/03/27 13:13:16;;;;;;;7.03;2.60;;;;;;;;;;4978987;28;20023;-79
2023/03/27 13:15:51;;;;;;;4.28;2.47;;;;;;;;;;5001344;28;20034;-79
2023/03/27 13:18:26;;;;;;;5.53;2.63;;;;;;;;;;5022574;28;20061;-79
2023/03/27 13:20:52;;;;;;;5.75;2.50;;;;;;;;;;5022751;28;20022;-81
2023/03/27 13:23:37;;;;;;;8.30;2.78;;;;;;;;;;5027312;28;20053;-79
2023/03/27 13:26:14;;;;;;;5.70;3.33;;;;;;;;;;5006826;28;20121;-79
2023/03/27 13:28:45;;;;;;;8.90;4.63;;;;;;;;;;5015709;28;20345;-79
2023/03/27 13:31:14;;;;;;;6.45;3.33;;;;;;;;;;5017900;28;20014;-78
2023/03/27 13:33:44;;;;;;;5.30;2.53;;;;;;;;;;5011779;28;20023;-80
2023/03/27 13:36:16;;;;;;;4.85;2.58;;;;;;;;;;5017877;28;20018;-78
2023/03/27 13:38:55;;;;;;;6.53;2.88;;;;;;;;;;5020917;28;20025;-79
2023/03/27 13:41:40;;;;;;;7.45;3.03;;;;;;;;;;5004322;28;20026;-79
2023/03/27 13:44:12;;;;;;;4.85;2.28;;;;;;;;;;5002634;28;20033;-80
2023/03/27 13:46:41;;;;;;;5.72;3.28;;;;;;;;;;5014985;28;20135;-79
2023/03/27 13:49:17;;;;;;;15.88;7.90;;;;;;;;;;5012641;28;20069;-79
2023/03/27 13:51:46;;;;;;;4.53;2.60;;;;;;;;;;5024491;28;20026;-79
2023/03/27 13:54:22;;;;;;;8.10;2.50;;;;;;;;;;5007612;28;20093;-79
2023/03/27 13:56:58;;;;;;;3.28;2.17;;;;;;;;;;5018288;28;20026;-79
2023/03/27 13:59:37;;;;;;;5.40;2.60;;;;;;;;;;5019126;28;20025;-80
2023/03/27 14:02:09;;;;;;;6.07;2.35;;;;;;;;;;5008358;28;20038;-79
2023/03/27 14:04:50;;;;;;;4.25;2.78;;;;;;;;;;5006293;28;20057;-80
2023/03/27 14:07:35;;;;;;;4.07;2.30;;;;;;;;;;5015118;28;20033;-78
2023/03/27 14:10:05;;;;;;;9.07;2.80;;;;;;;;;;5010244;28;20014;-79
2023/03/27 14:12:47;;;;;;;4.10;2.53;;;;;;;;;;5008927;28;20022;-80
2023/03/27 14:15:13;;;;;;;5.40;2.30;;;;;;;;;;5016655;28;20492;-80
2023/03/27 14:17:42;;;;;;;3.17;2.58;;;;;;;;;;5009730;28;20037;-80
2023/03/27 14:20:14;;;;;;;5.85;2.33;;;;;;;;;;5017385;28;20108;-79
2023/03/27 14:22:41;;;;;;;5.10;2.10;;;;;;;;;;5008331;28;20030;-80
2023/03/27 14:25:15;;;;;;;8.30;2.17;;;;;;;;;;5019519;28;20488;-80
2023/03/27 14:27:44;;;;;;;6.85;2.40;;;;;;;;;;5027225;28;20061;-80
2023/03/27 14:30:14;;;;;;;5.03;2.20;;;;;;;;;;5005327;28;20554;-80
2023/03/27 14:32:41;;;;;;;4.18;2.15;;;;;;;;;;5009403;28;20034;-81
2023/03/27 14:35:28;;;;;;;4.82;2.30;;;;;;;;;;5012971;28;20021;-80
2023/03/27 14:37:55;;;;;;;5.68;2.83;;;;;;;;;;5001457;28;20041;-80
2023/03/27 14:40:22;;;;;;;3.55;2.40;;;;;;;;;;5009432;28;20003;-80
2023/03/27 14:42:54;;;;;;;3.35;1.95;;;;;;;;;;5021023;28;20029;-82
2023/03/27 14:45:26;;;;;;;3.67;1.95;;;;;;;;;;5019488;28;20022;-79
2023/03/27 14:48:13;;;;;;;6.88;2.53;;;;;;;;;;5015630;28;20038;-79
2023/03/27 14:50:39;;;;;;;4.30;2.28;;;;;;;;;;5014390;28;20098;-80
2023/03/27 14:53:08;;;;;;;5.13;2.10;;;;;;;;;;5020703;28;20383;-80
2023/03/27 14:55:34;;;;;;;5.88;2.63;;;;;;;;;;5015717;28;20029;-81
2023/03/27 14:58:07;;;;;;;3.47;1.98;;;;;;;;;;5017067;28;20045;-80
2023/03/27 15:00:35;;;;;;;4.43;2.72;;;;;;;;;;5014413;28;20082;-80
2023/03/27 15:03:05;;;;;;;4.15;3.28;;;;;;;;;;5016659;28;20022;-79